GIA122 WIII-WIMM
Flight info
| Callsign | GIA122 |
|---|---|
| Flight time | 1h 51m |
| Altitude | 38000 |
| Route | GOMEL T10 AKPER |
| Aircraft | A20N/M-SDE2E3FGHIRWXY/LB1 |
Departure
| Time | 2026-05-07 07:47 |
|---|---|
| Airport | Soekarno-Hatta International Airport (WIII) |
Arrival
| Time | 2026-05-07 09:39 |
|---|---|
| Airport | Kualanamu International Airport (WIMM) |
| Time | Latitude | Longitude | Altitude | Speed | Heading |
|---|---|---|---|---|---|
| 2026-05-07 07:11 | -6.11567 | 106.66981 | 38 ft | 0 kts | 158° |
| 2026-05-07 07:34 | -6.11556 | 106.66977 | 37 ft | 2 kts | 157° |
| 2026-05-07 07:34 | -6.11541 | 106.66971 | 35 ft | 2 kts | 158° |
| 2026-05-07 07:34 | -6.11532 | 106.66967 | 35 ft | 2 kts | 159° |
| 2026-05-07 07:35 | -6.11519 | 106.66962 | 36 ft | 2 kts | 159° |
| 2026-05-07 07:35 | -6.11503 | 106.66956 | 35 ft | 2 kts | 159° |
| 2026-05-07 07:35 | -6.11488 | 106.66950 | 36 ft | 2 kts | 159° |
| 2026-05-07 07:35 | -6.11473 | 106.66945 | 34 ft | 2 kts | 160° |
| 2026-05-07 07:36 | -6.11457 | 106.66939 | 36 ft | 2 kts | 161° |
| 2026-05-07 07:36 | -6.11442 | 106.66934 | 34 ft | 2 kts | 162° |
| 2026-05-07 07:36 | -6.11427 | 106.66929 | 38 ft | 1 kts | 160° |
| 2026-05-07 07:36 | -6.11424 | 106.66928 | 35 ft | 0 kts | 159° |
| 2026-05-07 07:38 | -6.11437 | 106.66930 | 38 ft | 3 kts | 178° |
| 2026-05-07 07:38 | -6.11461 | 106.66915 | 37 ft | 5 kts | 217° |
| 2026-05-07 07:39 | -6.11488 | 106.66871 | 38 ft | 11 kts | 249° |
| 2026-05-07 07:39 | -6.11523 | 106.66766 | 38 ft | 20 kts | 253° |
| 2026-05-07 07:39 | -6.11562 | 106.66665 | 36 ft | 14 kts | 247° |
| 2026-05-07 07:39 | -6.11598 | 106.66581 | 38 ft | 0 kts | 247° |
| 2026-05-07 07:40 | -6.11608 | 106.66557 | 38 ft | 9 kts | 248° |
| 2026-05-07 07:40 | -6.11638 | 106.66465 | 38 ft | 17 kts | 262° |
| 2026-05-07 07:40 | -6.11577 | 106.66384 | 36 ft | 16 kts | 339° |
| 2026-05-07 07:40 | -6.11465 | 106.66344 | 38 ft | 18 kts | 341° |
| 2026-05-07 07:41 | -6.11367 | 106.66286 | 38 ft | 16 kts | 307° |
| 2026-05-07 07:41 | -6.11375 | 106.66176 | 38 ft | 18 kts | 250° |
| 2026-05-07 07:41 | -6.11426 | 106.66051 | 35 ft | 21 kts | 247° |
| 2026-05-07 07:41 | -6.11485 | 106.65907 | 36 ft | 24 kts | 248° |
| 2026-05-07 07:42 | -6.11550 | 106.65747 | 38 ft | 26 kts | 248° |
| 2026-05-07 07:42 | -6.11597 | 106.65627 | 38 ft | 2 kts | 249° |
| 2026-05-07 07:42 | -6.11613 | 106.65584 | 35 ft | 14 kts | 249° |
| 2026-05-07 07:42 | -6.11665 | 106.65451 | 37 ft | 24 kts | 248° |
| 2026-05-07 07:43 | -6.11727 | 106.65307 | 38 ft | 21 kts | 247° |
| 2026-05-07 07:43 | -6.11778 | 106.65185 | 38 ft | 15 kts | 248° |
| 2026-05-07 07:43 | -6.11822 | 106.65078 | 39 ft | 18 kts | 248° |
| 2026-05-07 07:43 | -6.11871 | 106.64951 | 39 ft | 21 kts | 249° |
| 2026-05-07 07:44 | -6.11918 | 106.64827 | 39 ft | 19 kts | 249° |
| 2026-05-07 07:44 | -6.11968 | 106.64697 | 39 ft | 21 kts | 248° |
| 2026-05-07 07:44 | -6.12018 | 106.64565 | 36 ft | 21 kts | 248° |
| 2026-05-07 07:44 | -6.12080 | 106.64420 | 38 ft | 23 kts | 246° |
| 2026-05-07 07:45 | -6.12126 | 106.64302 | 38 ft | 18 kts | 247° |
| 2026-05-07 07:45 | -6.12178 | 106.64173 | 37 ft | 21 kts | 248° |
| 2026-05-07 07:45 | -6.12228 | 106.64048 | 39 ft | 18 kts | 248° |
| 2026-05-07 07:45 | -6.12249 | 106.63930 | 39 ft | 15 kts | 290° |
| 2026-05-07 07:46 | -6.12218 | 106.63899 | 40 ft | 0 kts | 333° |
| 2026-05-07 07:46 | -6.12214 | 106.63897 | 40 ft | 4 kts | 334° |
| 2026-05-07 07:46 | -6.12124 | 106.63917 | 41 ft | 24 kts | 34° |
| 2026-05-07 07:46 | -6.11999 | 106.64121 | 38 ft | 55 kts | 68° |
| 2026-05-07 07:47 | -6.11777 | 106.64686 | 42 ft | 116 kts | 69° |
| 2026-05-07 07:47 | -6.11415 | 106.65588 | 70 ft | 159 kts | 67° |
| 2026-05-07 07:47 | -6.11002 | 106.66612 | 681 ft | 156 kts | 61° |
| 2026-05-07 07:47 | -6.10259 | 106.67455 | 1172 ft | 173 kts | 37° |
| 2026-05-07 07:48 | -6.09206 | 106.68179 | 1583 ft | 194 kts | 36° |
| 2026-05-07 07:48 | -6.08022 | 106.68978 | 2014 ft | 216 kts | 35° |
| 2026-05-07 07:48 | -6.06712 | 106.69859 | 2438 ft | 238 kts | 35° |
| 2026-05-07 07:48 | -6.05266 | 106.70824 | 2966 ft | 258 kts | 35° |
| 2026-05-07 07:49 | -6.03745 | 106.71838 | 3784 ft | 266 kts | 35° |
| 2026-05-07 07:49 | -6.02041 | 106.72601 | 4696 ft | 274 kts | 12° |
| 2026-05-07 07:49 | -6.00121 | 106.72525 | 5556 ft | 283 kts | 345° |
| 2026-05-07 07:49 | -5.98379 | 106.71587 | 6447 ft | 288 kts | 322° |
| 2026-05-07 07:50 | -5.96901 | 106.70201 | 7292 ft | 293 kts | 315° |
| 2026-05-07 07:50 | -5.95486 | 106.68708 | 8132 ft | 297 kts | 314° |
| 2026-05-07 07:50 | -5.94037 | 106.67217 | 8971 ft | 301 kts | 316° |
| 2026-05-07 07:50 | -5.92528 | 106.65742 | 9804 ft | 304 kts | 317° |
| 2026-05-07 07:51 | -5.90949 | 106.64256 | 10293 ft | 321 kts | 318° |
| 2026-05-07 07:51 | -5.89268 | 106.62707 | 10527 ft | 344 kts | 318° |
| 2026-05-07 07:51 | -5.87436 | 106.61031 | 10964 ft | 357 kts | 319° |
| 2026-05-07 07:51 | -5.85618 | 106.59369 | 11685 ft | 360 kts | 319° |
| 2026-05-07 07:52 | -5.83754 | 106.57665 | 12411 ft | 364 kts | 319° |
| 2026-05-07 07:52 | -5.81875 | 106.55946 | 13122 ft | 368 kts | 319° |
| 2026-05-07 07:52 | -5.79976 | 106.54207 | 13796 ft | 372 kts | 319° |
| 2026-05-07 07:52 | -5.78056 | 106.52450 | 14416 ft | 375 kts | 319° |
| 2026-05-07 07:53 | -5.76118 | 106.50675 | 15023 ft | 378 kts | 319° |
| 2026-05-07 07:53 | -5.74166 | 106.48888 | 15629 ft | 382 kts | 319° |
| 2026-05-07 07:53 | -5.72200 | 106.47089 | 16225 ft | 385 kts | 319° |
| 2026-05-07 07:53 | -5.70205 | 106.45264 | 16810 ft | 388 kts | 319° |
| 2026-05-07 07:54 | -5.68194 | 106.43430 | 17389 ft | 392 kts | 319° |
| 2026-05-07 07:54 | -5.66171 | 106.41579 | 17945 ft | 395 kts | 319° |
| 2026-05-07 07:54 | -5.64131 | 106.39710 | 18449 ft | 399 kts | 319° |
| 2026-05-07 07:54 | -5.62076 | 106.37827 | 18945 ft | 401 kts | 319° |
| 2026-05-07 07:55 | -5.60008 | 106.35933 | 19419 ft | 404 kts | 319° |
| 2026-05-07 07:55 | -5.57922 | 106.34024 | 19906 ft | 407 kts | 319° |
| 2026-05-07 07:55 | -5.55823 | 106.32103 | 20377 ft | 410 kts | 319° |
| 2026-05-07 07:55 | -5.53702 | 106.30162 | 20841 ft | 413 kts | 319° |
| 2026-05-07 07:56 | -5.51573 | 106.28214 | 21311 ft | 416 kts | 319° |
| 2026-05-07 07:56 | -5.49424 | 106.26248 | 21761 ft | 419 kts | 319° |
| 2026-05-07 07:56 | -5.47277 | 106.24285 | 22195 ft | 422 kts | 319° |
| 2026-05-07 07:56 | -5.45082 | 106.22277 | 22661 ft | 425 kts | 319° |
| 2026-05-07 07:57 | -5.42894 | 106.20276 | 23087 ft | 428 kts | 319° |
| 2026-05-07 07:57 | -5.40684 | 106.18255 | 23478 ft | 431 kts | 319° |
| 2026-05-07 07:57 | -5.38465 | 106.16226 | 23840 ft | 433 kts | 319° |
| 2026-05-07 07:57 | -5.36233 | 106.14185 | 24209 ft | 435 kts | 319° |
| 2026-05-07 07:58 | -5.33993 | 106.12137 | 24573 ft | 437 kts | 319° |
| 2026-05-07 07:58 | -5.31737 | 106.10074 | 24918 ft | 439 kts | 319° |
| 2026-05-07 07:58 | -5.29471 | 106.08003 | 25271 ft | 441 kts | 319° |
| 2026-05-07 07:58 | -5.27201 | 106.05928 | 25614 ft | 443 kts | 319° |
| 2026-05-07 07:59 | -5.24911 | 106.03835 | 25952 ft | 445 kts | 319° |
| 2026-05-07 07:59 | -5.22619 | 106.01740 | 26279 ft | 447 kts | 319° |
| 2026-05-07 07:59 | -5.20342 | 105.99661 | 26601 ft | 449 kts | 319° |
| 2026-05-07 07:59 | -5.18030 | 105.97547 | 26914 ft | 451 kts | 319° |
| 2026-05-07 08:00 | -5.15669 | 105.95391 | 27225 ft | 453 kts | 319° |
| 2026-05-07 08:00 | -5.13332 | 105.93256 | 27531 ft | 455 kts | 319° |
| 2026-05-07 08:00 | -5.10989 | 105.91116 | 27844 ft | 457 kts | 319° |
| 2026-05-07 08:00 | -5.08633 | 105.88964 | 28140 ft | 459 kts | 319° |
| 2026-05-07 08:01 | -5.06285 | 105.86821 | 28418 ft | 461 kts | 319° |
| 2026-05-07 08:01 | -5.03912 | 105.84655 | 28694 ft | 463 kts | 319° |
| 2026-05-07 08:01 | -5.01528 | 105.82479 | 28978 ft | 464 kts | 319° |
| 2026-05-07 08:01 | -4.99132 | 105.80292 | 29240 ft | 466 kts | 319° |
| 2026-05-07 08:02 | -4.96732 | 105.78101 | 29503 ft | 468 kts | 319° |
| 2026-05-07 08:02 | -4.94319 | 105.75898 | 29778 ft | 469 kts | 319° |
| 2026-05-07 08:02 | -4.91901 | 105.73691 | 30030 ft | 471 kts | 319° |
| 2026-05-07 08:02 | -4.89478 | 105.71479 | 30273 ft | 472 kts | 319° |
| 2026-05-07 08:03 | -4.87042 | 105.69257 | 30520 ft | 474 kts | 319° |
| 2026-05-07 08:03 | -4.84597 | 105.67027 | 30760 ft | 475 kts | 319° |
| 2026-05-07 08:03 | -4.82152 | 105.64797 | 31047 ft | 476 kts | 319° |
| 2026-05-07 08:03 | -4.79710 | 105.62570 | 31383 ft | 475 kts | 319° |
| 2026-05-07 08:04 | -4.78108 | 105.61110 | 31616 ft | 474 kts | 319° |
| 2026-05-07 08:04 | -4.75674 | 105.58891 | 31965 ft | 472 kts | 319° |
| 2026-05-07 08:04 | -4.73246 | 105.56677 | 32304 ft | 471 kts | 319° |
| 2026-05-07 08:04 | -4.70826 | 105.54471 | 32646 ft | 470 kts | 319° |
| 2026-05-07 08:05 | -4.68408 | 105.52268 | 32967 ft | 469 kts | 319° |
| 2026-05-07 08:05 | -4.66002 | 105.50075 | 33282 ft | 468 kts | 319° |
| 2026-05-07 08:05 | -4.63596 | 105.47882 | 33600 ft | 466 kts | 319° |
| 2026-05-07 08:05 | -4.61235 | 105.45730 | 33878 ft | 465 kts | 318° |
| 2026-05-07 08:06 | -4.58840 | 105.43548 | 34152 ft | 464 kts | 318° |
| 2026-05-07 08:06 | -4.56458 | 105.41375 | 34418 ft | 463 kts | 318° |
| 2026-05-07 08:06 | -4.54084 | 105.39212 | 34678 ft | 461 kts | 318° |
| 2026-05-07 08:06 | -4.51709 | 105.37049 | 34944 ft | 460 kts | 319° |
| 2026-05-07 08:07 | -4.49348 | 105.34898 | 35202 ft | 458 kts | 318° |
| 2026-05-07 08:07 | -4.46992 | 105.32751 | 35454 ft | 457 kts | 319° |
| 2026-05-07 08:07 | -4.44643 | 105.30612 | 35711 ft | 456 kts | 318° |
| 2026-05-07 08:07 | -4.42296 | 105.28475 | 35964 ft | 455 kts | 318° |
| 2026-05-07 08:08 | -4.39951 | 105.26339 | 36205 ft | 455 kts | 318° |
| 2026-05-07 08:08 | -4.37616 | 105.24213 | 36449 ft | 454 kts | 318° |
| 2026-05-07 08:08 | -4.35282 | 105.22088 | 36686 ft | 453 kts | 318° |
| 2026-05-07 08:08 | -4.32952 | 105.19967 | 36918 ft | 453 kts | 318° |
| 2026-05-07 08:09 | -4.30624 | 105.17847 | 37154 ft | 452 kts | 318° |
| 2026-05-07 08:09 | -4.28301 | 105.15731 | 37373 ft | 451 kts | 318° |
| 2026-05-07 08:09 | -4.25980 | 105.13620 | 37596 ft | 450 kts | 318° |
| 2026-05-07 08:09 | -4.23662 | 105.11510 | 37787 ft | 450 kts | 318° |
| 2026-05-07 08:10 | -4.21346 | 105.09401 | 37802 ft | 450 kts | 318° |
| 2026-05-07 08:10 | -4.16718 | 105.05190 | 37805 ft | 449 kts | 318° |
| 2026-05-07 08:11 | -4.12087 | 105.00977 | 37803 ft | 450 kts | 318° |
| 2026-05-07 08:11 | -4.07456 | 104.96763 | 37805 ft | 450 kts | 318° |
| 2026-05-07 08:12 | -4.03582 | 104.93241 | 37805 ft | 451 kts | 318° |
| 2026-05-07 08:12 | -3.98184 | 104.88331 | 37806 ft | 451 kts | 318° |
| 2026-05-07 08:13 | -3.93535 | 104.84105 | 37808 ft | 451 kts | 318° |
| 2026-05-07 08:13 | -3.89636 | 104.80560 | 37807 ft | 452 kts | 318° |
| 2026-05-07 08:14 | -3.84974 | 104.76322 | 37806 ft | 453 kts | 319° |
| 2026-05-07 08:14 | -3.80310 | 104.72082 | 37806 ft | 453 kts | 319° |
| 2026-05-07 08:15 | -3.75637 | 104.67836 | 37805 ft | 454 kts | 319° |
| 2026-05-07 08:15 | -3.70989 | 104.63613 | 37805 ft | 454 kts | 319° |
| 2026-05-07 08:16 | -3.66305 | 104.59357 | 37805 ft | 455 kts | 318° |
| 2026-05-07 08:16 | -3.61616 | 104.55098 | 37804 ft | 456 kts | 318° |
| 2026-05-07 08:17 | -3.56919 | 104.50832 | 37802 ft | 456 kts | 318° |
| 2026-05-07 08:17 | -3.52213 | 104.46559 | 37805 ft | 457 kts | 318° |
| 2026-05-07 08:18 | -3.47503 | 104.42283 | 37813 ft | 457 kts | 318° |
| 2026-05-07 08:18 | -3.42767 | 104.37983 | 37800 ft | 455 kts | 318° |
| 2026-05-07 08:19 | -3.38075 | 104.33725 | 37796 ft | 455 kts | 318° |
| 2026-05-07 08:19 | -3.33385 | 104.29468 | 37800 ft | 455 kts | 318° |
| 2026-05-07 08:20 | -3.28698 | 104.25215 | 37799 ft | 454 kts | 318° |
| 2026-05-07 08:20 | -3.24018 | 104.20969 | 37794 ft | 454 kts | 318° |
| 2026-05-07 08:21 | -3.19373 | 104.16754 | 37798 ft | 454 kts | 318° |
| 2026-05-07 08:21 | -3.14697 | 104.12513 | 37796 ft | 454 kts | 318° |
| 2026-05-07 08:22 | -3.10026 | 104.08277 | 37799 ft | 453 kts | 319° |
| 2026-05-07 08:22 | -3.05353 | 104.04039 | 37799 ft | 453 kts | 319° |
| 2026-05-07 08:23 | -3.00679 | 103.99800 | 37797 ft | 454 kts | 319° |
| 2026-05-07 08:23 | -2.96005 | 103.95562 | 37793 ft | 454 kts | 319° |
| 2026-05-07 08:24 | -2.91318 | 103.91315 | 37801 ft | 455 kts | 319° |
| 2026-05-07 08:24 | -2.86624 | 103.87060 | 37799 ft | 455 kts | 319° |
| 2026-05-07 08:25 | -2.81941 | 103.82815 | 37791 ft | 454 kts | 319° |
| 2026-05-07 08:25 | -2.77264 | 103.78576 | 37790 ft | 453 kts | 319° |
| 2026-05-07 08:26 | -2.70274 | 103.72242 | 37790 ft | 451 kts | 319° |
| 2026-05-07 08:26 | -2.65628 | 103.68033 | 37787 ft | 450 kts | 319° |
| 2026-05-07 08:27 | -2.60991 | 103.63833 | 37788 ft | 449 kts | 319° |
| 2026-05-07 08:27 | -2.56361 | 103.59639 | 37782 ft | 449 kts | 319° |
| 2026-05-07 08:28 | -2.51736 | 103.55451 | 37779 ft | 448 kts | 319° |
| 2026-05-07 08:28 | -2.47114 | 103.51265 | 37777 ft | 448 kts | 319° |
| 2026-05-07 08:29 | -2.42499 | 103.47086 | 37775 ft | 447 kts | 319° |
| 2026-05-07 08:29 | -2.37888 | 103.42911 | 37768 ft | 447 kts | 319° |
| 2026-05-07 08:30 | -2.33273 | 103.38734 | 37763 ft | 448 kts | 319° |
| 2026-05-07 08:30 | -2.28653 | 103.34552 | 37788 ft | 449 kts | 319° |
| 2026-05-07 08:31 | -2.23999 | 103.30339 | 37783 ft | 452 kts | 319° |
| 2026-05-07 08:31 | -2.19333 | 103.26117 | 37782 ft | 452 kts | 319° |
| 2026-05-07 08:32 | -2.14705 | 103.21928 | 37783 ft | 452 kts | 319° |
| 2026-05-07 08:32 | -2.10042 | 103.17709 | 37781 ft | 453 kts | 319° |
| 2026-05-07 08:33 | -2.05369 | 103.13481 | 37781 ft | 453 kts | 319° |
| 2026-05-07 08:33 | -2.00698 | 103.09255 | 37779 ft | 453 kts | 319° |
| 2026-05-07 08:34 | -1.96027 | 103.05030 | 37773 ft | 453 kts | 319° |
| 2026-05-07 08:34 | -1.91358 | 103.00807 | 37773 ft | 453 kts | 319° |
| 2026-05-07 08:35 | -1.86685 | 102.96581 | 37769 ft | 453 kts | 319° |
| 2026-05-07 08:35 | -1.82008 | 102.92350 | 37774 ft | 453 kts | 319° |
| 2026-05-07 08:36 | -1.77335 | 102.88124 | 37768 ft | 454 kts | 319° |
| 2026-05-07 08:36 | -1.72649 | 102.83887 | 37764 ft | 454 kts | 318° |
| 2026-05-07 08:37 | -1.67962 | 102.79650 | 37761 ft | 455 kts | 318° |
| 2026-05-07 08:37 | -1.63267 | 102.75404 | 37761 ft | 456 kts | 318° |
| 2026-05-07 08:38 | -1.58559 | 102.71148 | 37766 ft | 456 kts | 318° |
| 2026-05-07 08:38 | -1.53864 | 102.66867 | 37764 ft | 457 kts | 317° |
| 2026-05-07 08:39 | -1.49222 | 102.62509 | 37764 ft | 458 kts | 317° |
| 2026-05-07 08:39 | -1.44563 | 102.58141 | 37768 ft | 459 kts | 317° |
| 2026-05-07 08:40 | -1.39893 | 102.53776 | 37771 ft | 460 kts | 317° |
| 2026-05-07 08:40 | -1.35238 | 102.49428 | 37774 ft | 461 kts | 317° |
| 2026-05-07 08:41 | -1.30551 | 102.45052 | 37770 ft | 460 kts | 317° |
| 2026-05-07 08:41 | -1.25877 | 102.40687 | 37767 ft | 461 kts | 317° |
| 2026-05-07 08:42 | -1.21178 | 102.36300 | 37768 ft | 461 kts | 317° |
| 2026-05-07 08:42 | -1.16499 | 102.31931 | 37769 ft | 460 kts | 317° |
| 2026-05-07 08:43 | -1.11821 | 102.27563 | 37769 ft | 460 kts | 316° |
| 2026-05-07 08:43 | -1.07145 | 102.23198 | 37768 ft | 460 kts | 316° |
| 2026-05-07 08:44 | -1.02465 | 102.18828 | 37759 ft | 460 kts | 316° |
| 2026-05-07 08:44 | -0.97788 | 102.14461 | 37760 ft | 460 kts | 316° |
| 2026-05-07 08:45 | -0.93110 | 102.10094 | 37759 ft | 460 kts | 316° |
| 2026-05-07 08:45 | -0.88433 | 102.05727 | 37764 ft | 460 kts | 316° |
| 2026-05-07 08:46 | -0.83757 | 102.01363 | 37763 ft | 460 kts | 316° |
| 2026-05-07 08:46 | -0.79076 | 101.96995 | 37764 ft | 460 kts | 316° |
| 2026-05-07 08:47 | -0.74404 | 101.92633 | 37761 ft | 459 kts | 316° |
| 2026-05-07 08:47 | -0.69789 | 101.88326 | 37757 ft | 455 kts | 317° |
| 2026-05-07 08:48 | -0.65134 | 101.83980 | 37757 ft | 455 kts | 317° |
| 2026-05-07 08:48 | -0.60519 | 101.79674 | 37758 ft | 453 kts | 317° |
| 2026-05-07 08:49 | -0.55919 | 101.75380 | 37753 ft | 452 kts | 317° |
| 2026-05-07 08:49 | -0.51334 | 101.71100 | 37753 ft | 450 kts | 317° |
| 2026-05-07 08:50 | -0.46794 | 101.66863 | 37745 ft | 449 kts | 317° |
| 2026-05-07 08:50 | -0.42205 | 101.62580 | 37738 ft | 448 kts | 317° |
| 2026-05-07 08:51 | -0.37675 | 101.58352 | 37752 ft | 451 kts | 317° |
| 2026-05-07 08:51 | -0.33085 | 101.54069 | 37751 ft | 451 kts | 317° |
| 2026-05-07 08:52 | -0.28500 | 101.49789 | 37754 ft | 451 kts | 317° |
| 2026-05-07 08:52 | -0.23907 | 101.45502 | 37753 ft | 452 kts | 317° |
| 2026-05-07 08:53 | -0.19285 | 101.41189 | 37749 ft | 453 kts | 317° |
| 2026-05-07 08:53 | -0.14706 | 101.36916 | 37747 ft | 454 kts | 317° |
| 2026-05-07 08:54 | -0.10091 | 101.32610 | 37751 ft | 454 kts | 317° |
| 2026-05-07 08:54 | -0.05464 | 101.28292 | 37743 ft | 455 kts | 317° |
| 2026-05-07 08:55 | -0.00838 | 101.23974 | 37748 ft | 456 kts | 317° |
| 2026-05-07 08:55 | 0.03800 | 101.19647 | 37748 ft | 456 kts | 317° |
| 2026-05-07 08:56 | 0.08439 | 101.15318 | 37748 ft | 457 kts | 317° |
| 2026-05-07 08:56 | 0.13084 | 101.10983 | 37747 ft | 457 kts | 317° |
| 2026-05-07 08:57 | 0.17733 | 101.06645 | 37749 ft | 458 kts | 317° |
| 2026-05-07 08:57 | 0.21604 | 101.03033 | 37752 ft | 458 kts | 317° |
| 2026-05-07 08:58 | 0.26261 | 100.98687 | 37750 ft | 458 kts | 317° |
| 2026-05-07 08:58 | 0.30922 | 100.94337 | 37746 ft | 459 kts | 317° |
| 2026-05-07 08:59 | 0.35585 | 100.89986 | 37747 ft | 459 kts | 317° |
| 2026-05-07 08:59 | 0.40248 | 100.85634 | 37746 ft | 459 kts | 317° |
| 2026-05-07 09:00 | 0.44913 | 100.81281 | 37751 ft | 459 kts | 317° |
| 2026-05-07 09:00 | 0.49587 | 100.76919 | 37757 ft | 459 kts | 317° |
| 2026-05-07 09:01 | 0.54258 | 100.72560 | 37754 ft | 459 kts | 317° |
| 2026-05-07 09:01 | 0.58925 | 100.68203 | 37755 ft | 459 kts | 317° |
| 2026-05-07 09:02 | 0.63596 | 100.63844 | 37758 ft | 460 kts | 317° |
| 2026-05-07 09:02 | 0.68269 | 100.59482 | 37756 ft | 459 kts | 317° |
| 2026-05-07 09:03 | 0.72939 | 100.55123 | 37755 ft | 459 kts | 318° |
| 2026-05-07 09:03 | 0.77578 | 100.50794 | 37754 ft | 459 kts | 318° |
| 2026-05-07 09:04 | 0.82279 | 100.46406 | 37754 ft | 459 kts | 318° |
| 2026-05-07 09:04 | 0.86918 | 100.42076 | 37760 ft | 459 kts | 318° |
| 2026-05-07 09:05 | 0.91588 | 100.37717 | 37757 ft | 459 kts | 318° |
| 2026-05-07 09:05 | 0.96252 | 100.33363 | 37757 ft | 459 kts | 318° |
| 2026-05-07 09:06 | 1.00921 | 100.29004 | 37760 ft | 459 kts | 317° |
| 2026-05-07 09:06 | 1.05583 | 100.24652 | 37767 ft | 459 kts | 317° |
| 2026-05-07 09:07 | 1.10246 | 100.20297 | 37766 ft | 459 kts | 318° |
| 2026-05-07 09:07 | 1.14908 | 100.15945 | 37765 ft | 458 kts | 318° |
| 2026-05-07 09:08 | 1.19567 | 100.11594 | 37761 ft | 458 kts | 318° |
| 2026-05-07 09:08 | 1.24224 | 100.07246 | 37764 ft | 458 kts | 318° |
| 2026-05-07 09:09 | 1.28881 | 100.02898 | 37761 ft | 458 kts | 318° |
| 2026-05-07 09:09 | 1.33538 | 99.98549 | 37759 ft | 458 kts | 318° |
| 2026-05-07 09:10 | 1.38195 | 99.94200 | 37762 ft | 458 kts | 318° |
| 2026-05-07 09:10 | 1.42853 | 99.89849 | 37760 ft | 458 kts | 318° |
| 2026-05-07 09:11 | 1.47508 | 99.85502 | 37760 ft | 458 kts | 318° |
| 2026-05-07 09:11 | 1.52166 | 99.81150 | 37769 ft | 458 kts | 318° |
| 2026-05-07 09:12 | 1.56830 | 99.76793 | 37771 ft | 459 kts | 318° |
| 2026-05-07 09:12 | 1.61494 | 99.72437 | 37785 ft | 459 kts | 318° |
| 2026-05-07 09:13 | 1.66168 | 99.68070 | 37791 ft | 460 kts | 318° |
| 2026-05-07 09:13 | 1.70839 | 99.63706 | 37800 ft | 460 kts | 318° |
| 2026-05-07 09:14 | 1.75615 | 99.59525 | 37805 ft | 459 kts | 325° |
| 2026-05-07 09:14 | 1.81095 | 99.56286 | 37811 ft | 457 kts | 337° |
| 2026-05-07 09:15 | 1.87014 | 99.54009 | 37617 ft | 455 kts | 341° |
| 2026-05-07 09:15 | 1.89989 | 99.52912 | 36997 ft | 457 kts | 341° |
| 2026-05-07 09:15 | 1.92992 | 99.51802 | 36059 ft | 464 kts | 341° |
| 2026-05-07 09:16 | 1.96045 | 99.50674 | 35110 ft | 472 kts | 341° |
| 2026-05-07 09:16 | 1.99132 | 99.49532 | 34421 ft | 472 kts | 341° |
| 2026-05-07 09:16 | 2.02195 | 99.48399 | 33991 ft | 466 kts | 341° |
| 2026-05-07 09:16 | 2.05224 | 99.47277 | 33744 ft | 465 kts | 341° |
| 2026-05-07 09:17 | 2.08284 | 99.46143 | 33490 ft | 473 kts | 341° |
| 2026-05-07 09:17 | 2.11382 | 99.44995 | 33243 ft | 474 kts | 341° |
| 2026-05-07 09:17 | 2.14472 | 99.43850 | 33001 ft | 473 kts | 341° |
| 2026-05-07 09:17 | 2.17559 | 99.42704 | 32750 ft | 473 kts | 341° |
| 2026-05-07 09:18 | 2.20631 | 99.41532 | 32484 ft | 474 kts | 337° |
| 2026-05-07 09:18 | 2.23512 | 99.39945 | 31774 ft | 473 kts | 326° |
| 2026-05-07 09:18 | 2.26133 | 99.37927 | 30520 ft | 479 kts | 321° |
| 2026-05-07 09:18 | 2.28716 | 99.35778 | 28888 ft | 489 kts | 321° |
| 2026-05-07 09:19 | 2.31327 | 99.33580 | 27608 ft | 489 kts | 321° |
| 2026-05-07 09:19 | 2.33915 | 99.31416 | 26641 ft | 481 kts | 321° |
| 2026-05-07 09:19 | 2.36471 | 99.29297 | 25691 ft | 474 kts | 322° |
| 2026-05-07 09:19 | 2.38999 | 99.27215 | 24755 ft | 468 kts | 322° |
| 2026-05-07 09:20 | 2.41549 | 99.25225 | 23973 ft | 463 kts | 328° |
| 2026-05-07 09:20 | 2.44347 | 99.23680 | 23338 ft | 456 kts | 338° |
| 2026-05-07 09:20 | 2.47322 | 99.22667 | 22684 ft | 447 kts | 348° |
| 2026-05-07 09:20 | 2.50336 | 99.22063 | 22162 ft | 438 kts | 351° |
| 2026-05-07 09:21 | 2.53301 | 99.21482 | 21643 ft | 431 kts | 351° |
| 2026-05-07 09:21 | 2.56212 | 99.20906 | 21129 ft | 423 kts | 351° |
| 2026-05-07 09:21 | 2.58113 | 99.20530 | 20790 ft | 419 kts | 351° |
| 2026-05-07 09:21 | 2.60204 | 99.20117 | 20422 ft | 414 kts | 351° |
| 2026-05-07 09:22 | 2.63011 | 99.19563 | 19922 ft | 409 kts | 351° |
| 2026-05-07 09:22 | 2.65786 | 99.19017 | 19428 ft | 403 kts | 351° |
| 2026-05-07 09:22 | 2.68524 | 99.18478 | 18928 ft | 399 kts | 351° |
| 2026-05-07 09:22 | 2.71194 | 99.17953 | 18441 ft | 395 kts | 351° |
| 2026-05-07 09:23 | 2.73909 | 99.17419 | 17948 ft | 391 kts | 351° |
| 2026-05-07 09:23 | 2.76534 | 99.16903 | 17492 ft | 388 kts | 351° |
| 2026-05-07 09:23 | 2.79178 | 99.16384 | 17036 ft | 387 kts | 351° |
| 2026-05-07 09:23 | 2.81805 | 99.15867 | 16569 ft | 383 kts | 351° |
| 2026-05-07 09:24 | 2.84410 | 99.15354 | 16110 ft | 381 kts | 351° |
| 2026-05-07 09:24 | 2.86997 | 99.14845 | 15654 ft | 378 kts | 351° |
| 2026-05-07 09:24 | 2.89569 | 99.14339 | 15194 ft | 375 kts | 351° |
| 2026-05-07 09:24 | 2.92121 | 99.13837 | 14752 ft | 373 kts | 351° |
| 2026-05-07 09:25 | 2.94654 | 99.13338 | 14341 ft | 369 kts | 351° |
| 2026-05-07 09:25 | 2.97093 | 99.12556 | 14134 ft | 370 kts | 336° |
| 2026-05-07 09:25 | 2.99260 | 99.11201 | 14058 ft | 364 kts | 322° |
| 2026-05-07 09:25 | 3.01056 | 99.09488 | 13911 ft | 348 kts | 317° |
| 2026-05-07 09:26 | 3.02725 | 99.07816 | 13678 ft | 333 kts | 317° |
| 2026-05-07 09:26 | 3.04353 | 99.06195 | 13117 ft | 328 kts | 317° |
| 2026-05-07 09:26 | 3.05963 | 99.04596 | 12526 ft | 324 kts | 316° |
| 2026-05-07 09:26 | 3.07553 | 99.03016 | 11946 ft | 321 kts | 316° |
| 2026-05-07 09:27 | 3.09129 | 99.01449 | 11368 ft | 317 kts | 316° |
| 2026-05-07 09:27 | 3.10682 | 98.99905 | 10866 ft | 312 kts | 316° |
| 2026-05-07 09:27 | 3.13704 | 98.96897 | 10141 ft | 307 kts | 316° |
| 2026-05-07 09:28 | 3.15226 | 98.95383 | 9766 ft | 309 kts | 316° |
| 2026-05-07 09:28 | 3.16751 | 98.93866 | 9375 ft | 308 kts | 315° |
| 2026-05-07 09:28 | 3.18262 | 98.92361 | 9003 ft | 305 kts | 315° |
| 2026-05-07 09:28 | 3.19759 | 98.90870 | 8655 ft | 302 kts | 315° |
| 2026-05-07 09:29 | 3.21237 | 98.89401 | 8281 ft | 298 kts | 315° |
| 2026-05-07 09:29 | 3.22685 | 98.87961 | 7930 ft | 296 kts | 315° |
| 2026-05-07 09:29 | 3.24155 | 98.86497 | 7573 ft | 294 kts | 315° |
| 2026-05-07 09:29 | 3.25597 | 98.85062 | 7219 ft | 291 kts | 315° |
| 2026-05-07 09:30 | 3.27011 | 98.83657 | 6878 ft | 289 kts | 314° |
| 2026-05-07 09:30 | 3.28428 | 98.82247 | 6530 ft | 287 kts | 314° |
| 2026-05-07 09:30 | 3.29840 | 98.80841 | 6181 ft | 285 kts | 314° |
| 2026-05-07 09:30 | 3.31240 | 98.79445 | 5832 ft | 284 kts | 314° |
| 2026-05-07 09:31 | 3.32649 | 98.78073 | 5487 ft | 281 kts | 315° |
| 2026-05-07 09:31 | 3.34064 | 98.76729 | 5151 ft | 279 kts | 316° |
| 2026-05-07 09:31 | 3.35469 | 98.75399 | 4816 ft | 277 kts | 316° |
| 2026-05-07 09:31 | 3.36864 | 98.74077 | 4478 ft | 275 kts | 316° |
| 2026-05-07 09:32 | 3.38243 | 98.72765 | 4149 ft | 272 kts | 316° |
| 2026-05-07 09:32 | 3.39612 | 98.71459 | 3819 ft | 272 kts | 316° |
| 2026-05-07 09:32 | 3.40985 | 98.70148 | 3489 ft | 272 kts | 316° |
| 2026-05-07 09:32 | 3.42496 | 98.69058 | 3179 ft | 268 kts | 338° |
| 2026-05-07 09:33 | 3.44314 | 98.68851 | 3061 ft | 269 kts | 11° |
| 2026-05-07 09:33 | 3.46032 | 98.69574 | 3025 ft | 268 kts | 34° |
| 2026-05-07 09:33 | 3.47463 | 98.70716 | 3020 ft | 256 kts | 43° |
| 2026-05-07 09:33 | 3.48700 | 98.71925 | 3014 ft | 241 kts | 46° |
| 2026-05-07 09:34 | 3.49847 | 98.73079 | 3011 ft | 227 kts | 45° |
| 2026-05-07 09:34 | 3.50935 | 98.74169 | 3006 ft | 219 kts | 45° |
| 2026-05-07 09:34 | 3.52000 | 98.75237 | 2819 ft | 215 kts | 45° |
| 2026-05-07 09:34 | 3.53045 | 98.76283 | 2571 ft | 207 kts | 45° |
| 2026-05-07 09:35 | 3.54032 | 98.77273 | 2288 ft | 196 kts | 45° |
| 2026-05-07 09:35 | 3.54955 | 98.78197 | 2032 ft | 177 kts | 45° |
| 2026-05-07 09:35 | 3.55776 | 98.79019 | 1827 ft | 156 kts | 46° |
| 2026-05-07 09:35 | 3.56506 | 98.79752 | 1623 ft | 141 kts | 46° |
| 2026-05-07 09:36 | 3.57187 | 98.80434 | 1446 ft | 143 kts | 46° |
| 2026-05-07 09:36 | 3.57910 | 98.81160 | 1243 ft | 148 kts | 45° |
| 2026-05-07 09:36 | 3.58626 | 98.81883 | 1028 ft | 145 kts | 45° |
| 2026-05-07 09:36 | 3.59325 | 98.82580 | 898 ft | 141 kts | 46° |
| 2026-05-07 09:37 | 3.60022 | 98.83284 | 739 ft | 143 kts | 45° |
| 2026-05-07 09:37 | 3.60728 | 98.83986 | 556 ft | 143 kts | 44° |
| 2026-05-07 09:37 | 3.61402 | 98.84681 | 362 ft | 135 kts | 44° |
| 2026-05-07 09:37 | 3.62091 | 98.85369 | 208 ft | 143 kts | 43° |
| 2026-05-07 09:38 | 3.62786 | 98.86062 | 50 ft | 140 kts | 44° |
| 2026-05-07 09:38 | 3.63405 | 98.86674 | 30 ft | 102 kts | 45° |
| 2026-05-07 09:38 | 3.63742 | 98.87002 | 32 ft | 50 kts | 43° |
| 2026-05-07 09:38 | 3.63972 | 98.87258 | 30 ft | 50 kts | 50° |
| 2026-05-07 09:39 | 3.64110 | 98.87535 | 29 ft | 35 kts | 77° |
| 2026-05-07 09:39 | 3.64123 | 98.87580 | 29 ft | 0 kts | 70° |
| 2026-05-07 09:41 | 3.64135 | 98.87612 | 29 ft | 12 kts | 70° |
| 2026-05-07 09:41 | 3.64174 | 98.87693 | 29 ft | 8 kts | 48° |
| 2026-05-07 09:41 | 3.64220 | 98.87745 | 29 ft | 12 kts | 48° |
| 2026-05-07 09:41 | 3.64284 | 98.87806 | 29 ft | 14 kts | 38° |
| 2026-05-07 09:42 | 3.64365 | 98.87873 | 29 ft | 16 kts | 39° |
| 2026-05-07 09:42 | 3.64419 | 98.87945 | 29 ft | 9 kts | 79° |
| 2026-05-07 09:42 | 3.64397 | 98.88004 | 29 ft | 11 kts | 135° |
| 2026-05-07 09:42 | 3.64335 | 98.88065 | 29 ft | 14 kts | 135° |
| 2026-05-07 09:43 | 3.64272 | 98.88129 | 29 ft | 12 kts | 134° |
| 2026-05-07 09:43 | 3.64206 | 98.88193 | 29 ft | 14 kts | 154° |
| 2026-05-07 09:43 | 3.64134 | 98.88161 | 29 ft | 10 kts | 248° |
| 2026-05-07 09:43 | 3.64080 | 98.88112 | 29 ft | 11 kts | 219° |
| 2026-05-07 09:44 | 3.64013 | 98.88054 | 29 ft | 15 kts | 227° |
| 2026-05-07 09:44 | 3.63954 | 98.87993 | 29 ft | 0 kts | 224° |
| 2026-05-07 09:44 | 3.63952 | 98.87986 | 29 ft | 2 kts | 256° |
| 2026-05-07 09:44 | 3.63960 | 98.87973 | 29 ft | 3 kts | 308° |
| 2026-05-07 09:45 | 3.63976 | 98.87956 | 29 ft | 2 kts | 315° |
| 2026-05-07 09:45 | 3.63991 | 98.87940 | 29 ft | 0 kts | 315° |